sensor_id;sensor_type;location;lat;lon;timestamp;temperature;humidity
16976;DHT22;8604;48.148;-1.786;2024-03-23T00:56:13;6.40;99.90
16976;DHT22;8604;48.148;-1.786;2024-03-23T00:58:40;6.40;99.90
16976;DHT22;8604;48.148;-1.786;2024-03-23T01:01:07;6.40;99.90
16976;DHT22;8604;48.148;-1.786;2024-03-23T01:03:34;6.30;99.90
16976;DHT22;8604;48.148;-1.786;2024-03-23T01:06:00;6.40;99.90
16976;DHT22;8604;48.148;-1.786;2024-03-23T01:08:28;6.30;99.90
16976;DHT22;8604;48.148;-1.786;2024-03-23T01:10:56;6.30;99.90
16976;DHT22;8604;48.148;-1.786;2024-03-23T01:13:24;6.30;99.90
16976;DHT22;8604;48.148;-1.786;2024-03-23T01:15:51;6.40;99.90
16976;DHT22;8604;48.148;-1.786;2024-03-23T01:18:19;6.40;99.90
16976;DHT22;8604;48.148;-1.786;2024-03-23T01:20:45;6.30;99.90
16976;DHT22;8604;48.148;-1.786;2024-03-23T01:23:13;6.20;99.90
16976;DHT22;8604;48.148;-1.786;2024-03-23T01:25:39;6.20;99.90
16976;DHT22;8604;48.148;-1.786;2024-03-23T01:28:08;6.10;99.90
16976;DHT22;8604;48.148;-1.786;2024-03-23T01:30:35;6.10;99.90
16976;DHT22;8604;48.148;-1.786;2024-03-23T01:33:03;6.10;99.90
16976;DHT22;8604;48.148;-1.786;2024-03-23T01:35:29;6.00;99.90
16976;DHT22;8604;48.148;-1.786;2024-03-23T01:37:57;6.00;99.90
16976;DHT22;8604;48.148;-1.786;2024-03-23T01:40:23;5.90;99.90
16976;DHT22;8604;48.148;-1.786;2024-03-23T01:42:56;6.00;99.90
16976;DHT22;8604;48.148;-1.786;2024-03-23T01:45:24;5.90;99.90
16976;DHT22;8604;48.148;-1.786;2024-03-23T01:47:52;5.90;99.90
16976;DHT22;8604;48.148;-1.786;2024-03-23T01:50:19;5.90;99.90
16976;DHT22;8604;48.148;-1.786;2024-03-23T01:52:47;5.90;99.90
16976;DHT22;8604;48.148;-1.786;2024-03-23T01:55:14;5.80;99.90
16976;DHT22;8604;48.148;-1.786;2024-03-23T01:57:42;5.80;99.90
16976;DHT22;8604;48.148;-1.786;2024-03-23T02:00:09;5.80;99.90
16976;DHT22;8604;48.148;-1.786;2024-03-23T02:02:43;5.80;99.90
16976;DHT22;8604;48.148;-1.786;2024-03-23T02:05:10;5.80;99.90
16976;DHT22;8604;48.148;-1.786;2024-03-23T02:07:38;5.80;99.90
16976;DHT22;8604;48.148;-1.786;2024-03-23T02:10:06;5.80;99.90
16976;DHT22;8604;48.148;-1.786;2024-03-23T02:12:33;5.80;99.90
16976;DHT22;8604;48.148;-1.786;2024-03-23T02:15:00;5.80;99.90
16976;DHT22;8604;48.148;-1.786;2024-03-23T02:17:28;5.80;99.90
16976;DHT22;8604;48.148;-1.786;2024-03-23T02:19:56;5.80;99.90
16976;DHT22;8604;48.148;-1.786;2024-03-23T02:22:23;5.80;99.90
16976;DHT22;8604;48.148;-1.786;2024-03-23T02:24:51;5.80;99.90
16976;DHT22;8604;48.148;-1.786;2024-03-23T02:27:18;5.80;99.90
16976;DHT22;8604;48.148;-1.786;2024-03-23T02:29:45;5.80;99.90
16976;DHT22;8604;48.148;-1.786;2024-03-23T02:32:12;5.80;99.90
16976;DHT22;8604;48.148;-1.786;2024-03-23T02:34:39;5.80;99.90
16976;DHT22;8604;48.148;-1.786;2024-03-23T02:37:10;5.80;99.90
16976;DHT22;8604;48.148;-1.786;2024-03-23T02:39:37;5.80;99.90
16976;DHT22;8604;48.148;-1.786;2024-03-23T02:42:06;5.70;99.90
16976;DHT22;8604;48.148;-1.786;2024-03-23T02:44:32;5.70;99.90
16976;DHT22;8604;48.148;-1.786;2024-03-23T02:46:59;5.80;99.90
16976;DHT22;8604;48.148;-1.786;2024-03-23T02:49:27;5.80;99.90
16976;DHT22;8604;48.148;-1.786;2024-03-23T02:51:54;5.80;99.90
16976;DHT22;8604;48.148;-1.786;2024-03-23T02:54:21;5.80;99.90
16976;DHT22;8604;48.148;-1.786;2024-03-23T02:56:48;5.80;99.90
16976;DHT22;8604;48.148;-1.786;2024-03-23T02:59:16;5.80;99.90
16976;DHT22;8604;48.148;-1.786;2024-03-23T03:01:43;5.80;99.90
16976;DHT22;8604;48.148;-1.786;2024-03-23T03:04:09;5.80;99.90
16976;DHT22;8604;48.148;-1.786;2024-03-23T03:06:37;5.80;99.90
16976;DHT22;8604;48.148;-1.786;2024-03-23T03:09:03;5.90;99.90
16976;DHT22;8604;48.148;-1.786;2024-03-23T03:11:30;5.90;99.90
16976;DHT22;8604;48.148;-1.786;2024-03-23T03:13:57;5.90;99.90
16976;DHT22;8604;48.148;-1.786;2024-03-23T03:16:27;6.00;99.90
16976;DHT22;8604;48.148;-1.786;2024-03-23T03:18:54;6.00;99.90
16976;DHT22;8604;48.148;-1.786;2024-03-23T03:21:21;5.90;99.90
16976;DHT22;8604;48.148;-1.786;2024-03-23T03:23:48;6.00;99.90
16976;DHT22;8604;48.148;-1.786;2024-03-23T03:26:16;5.90;99.90
16976;DHT22;8604;48.148;-1.786;2024-03-23T03:28:43;6.00;99.90
16976;DHT22;8604;48.148;-1.786;2024-03-23T03:31:14;6.00;99.90
16976;DHT22;8604;48.148;-1.786;2024-03-23T03:33:42;6.00;99.90
16976;DHT22;8604;48.148;-1.786;2024-03-23T03:36:09;6.00;99.90
16976;DHT22;8604;48.148;-1.786;2024-03-23T03:38:36;6.00;99.90
16976;DHT22;8604;48.148;-1.786;2024-03-23T03:41:04;6.00;99.90
16976;DHT22;8604;48.148;-1.786;2024-03-23T03:43:32;6.00;99.90
16976;DHT22;8604;48.148;-1.786;2024-03-23T03:46:00;5.90;99.90
16976;DHT22;8604;48.148;-1.786;2024-03-23T03:48:27;5.90;99.90
16976;DHT22;8604;48.148;-1.786;2024-03-23T03:50:57;5.90;99.90
16976;DHT22;8604;48.148;-1.786;2024-03-23T03:53:23;5.90;99.90
16976;DHT22;8604;48.148;-1.786;2024-03-23T03:55:50;5.90;99.90
16976;DHT22;8604;48.148;-1.786;2024-03-23T03:58:17;5.90;99.90
16976;DHT22;8604;48.148;-1.786;2024-03-23T04:00:44;5.90;99.90
16976;DHT22;8604;48.148;-1.786;2024-03-23T04:03:11;5.90;99.90
16976;DHT22;8604;48.148;-1.786;2024-03-23T04:05:38;5.80;99.90
16976;DHT22;8604;48.148;-1.786;2024-03-23T04:08:07;5.80;99.90
16976;DHT22;8604;48.148;-1.786;2024-03-23T04:10:34;5.80;99.90
16976;DHT22;8604;48.148;-1.786;2024-03-23T04:13:01;5.80;99.90
16976;DHT22;8604;48.148;-1.786;2024-03-23T04:15:30;5.80;99.90
16976;DHT22;8604;48.148;-1.786;2024-03-23T04:17:57;5.80;99.90
16976;DHT22;8604;48.148;-1.786;2024-03-23T04:20:24;5.80;99.90
16976;DHT22;8604;48.148;-1.786;2024-03-23T04:22:50;5.80;99.90
16976;DHT22;8604;48.148;-1.786;2024-03-23T04:25:19;5.80;99.90
16976;DHT22;8604;48.148;-1.786;2024-03-23T04:27:45;5.80;99.90
16976;DHT22;8604;48.148;-1.786;2024-03-23T04:30:13;5.80;99.90
16976;DHT22;8604;48.148;-1.786;2024-03-23T04:32:40;5.80;99.90
16976;DHT22;8604;48.148;-1.786;2024-03-23T04:35:08;5.80;99.90
16976;DHT22;8604;48.148;-1.786;2024-03-23T04:37:35;5.70;99.90
16976;DHT22;8604;48.148;-1.786;2024-03-23T04:40:04;5.70;99.90
16976;DHT22;8604;48.148;-1.786;2024-03-23T04:42:33;5.70;99.90
16976;DHT22;8604;48.148;-1.786;2024-03-23T04:44:59;5.70;99.90
16976;DHT22;8604;48.148;-1.786;2024-03-23T04:47:27;5.70;99.90
16976;DHT22;8604;48.148;-1.786;2024-03-23T04:49:55;5.70;99.90
16976;DHT22;8604;48.148;-1.786;2024-03-23T04:52:22;5.70;99.90
16976;DHT22;8604;48.148;-1.786;2024-03-23T04:54:50;5.70;99.90
16976;DHT22;8604;48.148;-1.786;2024-03-23T04:57:17;5.60;99.90
16976;DHT22;8604;48.148;-1.786;2024-03-23T04:59:48;5.60;99.90
16976;DHT22;8604;48.148;-1.786;2024-03-23T05:02:15;5.60;99.90
16976;DHT22;8604;48.148;-1.786;2024-03-23T05:04:42;5.60;99.90
16976;DHT22;8604;48.148;-1.786;2024-03-23T05:07:09;5.60;99.90
16976;DHT22;8604;48.148;-1.786;2024-03-23T05:09:36;5.60;99.90
16976;DHT22;8604;48.148;-1.786;2024-03-23T05:12:03;5.60;99.90
16976;DHT22;8604;48.148;-1.786;2024-03-23T05:14:30;5.60;99.90
16976;DHT22;8604;48.148;-1.786;2024-03-23T05:16:58;5.60;99.90
16976;DHT22;8604;48.148;-1.786;2024-03-23T05:19:25;5.60;99.90
16976;DHT22;8604;48.148;-1.786;2024-03-23T05:21:52;5.60;99.90
16976;DHT22;8604;48.148;-1.786;2024-03-23T05:24:19;5.50;99.90
16976;DHT22;8604;48.148;-1.786;2024-03-23T05:26:46;5.50;99.90
16976;DHT22;8604;48.148;-1.786;2024-03-23T05:29:13;5.50;99.90
16976;DHT22;8604;48.148;-1.786;2024-03-23T05:31:40;5.40;99.90
16976;DHT22;8604;48.148;-1.786;2024-03-23T05:34:09;5.40;99.90
16976;DHT22;8604;48.148;-1.786;2024-03-23T05:36:36;5.30;99.90
16976;DHT22;8604;48.148;-1.786;2024-03-23T05:39:03;5.30;99.90
16976;DHT22;8604;48.148;-1.786;2024-03-23T05:41:30;5.30;99.90
16976;DHT22;8604;48.148;-1.786;2024-03-23T05:43:57;5.30;99.90
16976;DHT22;8604;48.148;-1.786;2024-03-23T05:46:24;5.30;99.90
16976;DHT22;8604;48.148;-1.786;2024-03-23T05:48:51;5.20;99.90
16976;DHT22;8604;48.148;-1.786;2024-03-23T05:51:27;5.20;99.90
16976;DHT22;8604;48.148;-1.786;2024-03-23T05:53:54;5.20;99.90
16976;DHT22;8604;48.148;-1.786;2024-03-23T05:56:21;5.20;99.90
16976;DHT22;8604;48.148;-1.786;2024-03-23T05:58:47;5.20;99.90
16976;DHT22;8604;48.148;-1.786;2024-03-23T06:01:15;5.10;99.90
16976;DHT22;8604;48.148;-1.786;2024-03-23T06:03:41;5.10;99.90
16976;DHT22;8604;48.148;-1.786;2024-03-23T06:06:09;5.20;99.90
16976;DHT22;8604;48.148;-1.786;2024-03-23T06:08:39;5.20;99.90
16976;DHT22;8604;48.148;-1.786;2024-03-23T06:11:06;5.10;99.90
16976;DHT22;8604;48.148;-1.786;2024-03-23T06:13:33;5.10;99.90
16976;DHT22;8604;48.148;-1.786;2024-03-23T06:16:01;5.10;99.90
16976;DHT22;8604;48.148;-1.786;2024-03-23T06:18:29;5.20;99.90
16976;DHT22;8604;48.148;-1.786;2024-03-23T06:20:56;5.20;99.90
16976;DHT22;8604;48.148;-1.786;2024-03-23T06:23:23;5.20;99.90
16976;DHT22;8604;48.148;-1.786;2024-03-23T06:25:52;5.20;99.90
16976;DHT22;8604;48.148;-1.786;2024-03-23T06:28:18;5.20;99.90
16976;DHT22;8604;48.148;-1.786;2024-03-23T06:30:47;5.20;99.90
16976;DHT22;8604;48.148;-1.786;2024-03-23T06:33:13;5.20;99.90
16976;DHT22;8604;48.148;-1.786;2024-03-23T06:35:40;5.30;99.90
16976;DHT22;8604;48.148;-1.786;2024-03-23T06:38:07;5.30;99.90
16976;DHT22;8604;48.148;-1.786;2024-03-23T06:40:36;5.30;99.90
16976;DHT22;8604;48.148;-1.786;2024-03-23T06:43:04;5.30;99.90
16976;DHT22;8604;48.148;-1.786;2024-03-23T06:45:31;5.30;99.90
16976;DHT22;8604;48.148;-1.786;2024-03-23T06:48:17;5.40;99.90
16976;DHT22;8604;48.148;-1.786;2024-03-23T06:50:48;5.40;99.90
16976;DHT22;8604;48.148;-1.786;2024-03-23T06:53:35;5.40;99.90
16976;DHT22;8604;48.148;-1.786;2024-03-23T06:56:24;5.40;99.90
16976;DHT22;8604;48.148;-1.786;2024-03-23T06:59:21;5.50;99.90
16976;DHT22;8604;48.148;-1.786;2024-03-23T07:01:49;5.50;99.90
16976;DHT22;8604;48.148;-1.786;2024-03-23T07:04:17;5.60;99.90
16976;DHT22;8604;48.148;-1.786;2024-03-23T07:06:45;5.60;99.90
16976;DHT22;8604;48.148;-1.786;2024-03-23T07:09:12;5.60;99.90
16976;DHT22;8604;48.148;-1.786;2024-03-23T07:11:39;5.60;99.90
16976;DHT22;8604;48.148;-1.786;2024-03-23T07:14:05;5.60;99.90
16976;DHT22;8604;48.148;-1.786;2024-03-23T07:16:37;5.70;99.90
16976;DHT22;8604;48.148;-1.786;2024-03-23T07:19:03;5.70;99.90
16976;DHT22;8604;48.148;-1.786;2024-03-23T07:21:30;5.80;99.90
16976;DHT22;8604;48.148;-1.786;2024-03-23T07:23:57;5.80;99.90
16976;DHT22;8604;48.148;-1.786;2024-03-23T07:26:24;5.90;99.90
16976;DHT22;8604;48.148;-1.786;2024-03-23T07:28:51;6.00;99.90
16976;DHT22;8604;48.148;-1.786;2024-03-23T07:31:19;6.10;99.90
16976;DHT22;8604;48.148;-1.786;2024-03-23T07:33:49;6.20;99.90
16976;DHT22;8604;48.148;-1.786;2024-03-23T07:36:17;6.40;99.90
16976;DHT22;8604;48.148;-1.786;2024-03-23T07:38:43;6.80;99.90
16976;DHT22;8604;48.148;-1.786;2024-03-23T07:41:15;7.30;99.90
16976;DHT22;8604;48.148;-1.786;2024-03-23T07:43:43;7.80;99.90
16976;DHT22;8604;48.148;-1.786;2024-03-23T07:46:11;8.30;99.90
16976;DHT22;8604;48.148;-1.786;2024-03-23T07:48:38;8.70;99.90
16976;DHT22;8604;48.148;-1.786;2024-03-23T07:51:08;9.20;99.90
16976;DHT22;8604;48.148;-1.786;2024-03-23T07:53:36;9.50;99.90
16976;DHT22;8604;48.148;-1.786;2024-03-23T07:56:06;9.80;99.90
16976;DHT22;8604;48.148;-1.786;2024-03-23T07:58:33;10.20;99.90
16976;DHT22;8604;48.148;-1.786;2024-03-23T08:01:04;10.60;99.90
16976;DHT22;8604;48.148;-1.786;2024-03-23T08:03:31;11.10;99.90
16976;DHT22;8604;48.148;-1.786;2024-03-23T08:06:08;11.60;99.90
16976;DHT22;8604;48.148;-1.786;2024-03-23T08:08:35;12.10;99.90
16976;DHT22;8604;48.148;-1.786;2024-03-23T08:11:02;12.60;99.90
16976;DHT22;8604;48.148;-1.786;2024-03-23T08:13:30;12.90;99.90
16976;DHT22;8604;48.148;-1.786;2024-03-23T08:15:57;13.20;99.90
16976;DHT22;8604;48.148;-1.786;2024-03-23T08:18:24;13.50;99.90
16976;DHT22;8604;48.148;-1.786;2024-03-23T08:20:58;13.80;99.90
16976;DHT22;8604;48.148;-1.786;2024-03-23T08:23:28;13.80;99.90
16976;DHT22;8604;48.148;-1.786;2024-03-23T08:25:57;14.10;99.90
16976;DHT22;8604;48.148;-1.786;2024-03-23T08:28:24;14.00;99.90
16976;DHT22;8604;48.148;-1.786;2024-03-23T08:30:52;14.20;99.90
16976;DHT22;8604;48.148;-1.786;2024-03-23T08:33:18;14.20;99.90
16976;DHT22;8604;48.148;-1.786;2024-03-23T08:35:53;14.30;99.90
16976;DHT22;8604;48.148;-1.786;2024-03-23T08:38:21;14.40;99.90
16976;DHT22;8604;48.148;-1.786;2024-03-23T08:40:56;14.60;99.90
16976;DHT22;8604;48.148;-1.786;2024-03-23T08:43:23;15.10;99.90
16976;DHT22;8604;48.148;-1.786;2024-03-23T08:45:50;15.60;99.90
16976;DHT22;8604;48.148;-1.786;2024-03-23T08:48:18;15.50;99.90
16976;DHT22;8604;48.148;-1.786;2024-03-23T08:50:46;15.50;99.90
16976;DHT22;8604;48.148;-1.786;2024-03-23T08:53:12;15.80;99.90
16976;DHT22;8604;48.148;-1.786;2024-03-23T08:55:40;15.70;99.90
16976;DHT22;8604;48.148;-1.786;2024-03-23T08:58:08;15.90;99.90
16976;DHT22;8604;48.148;-1.786;2024-03-23T09:00:36;16.10;99.90
16976;DHT22;8604;48.148;-1.786;2024-03-23T09:03:02;16.40;99.90
16976;DHT22;8604;48.148;-1.786;2024-03-23T09:05:30;16.50;99.90
16976;DHT22;8604;48.148;-1.786;2024-03-23T09:08:02;16.90;99.90
16976;DHT22;8604;48.148;-1.786;2024-03-23T09:10:29;17.10;99.90
16976;DHT22;8604;48.148;-1.786;2024-03-23T09:12:56;17.50;99.90
16976;DHT22;8604;48.148;-1.786;2024-03-23T09:15:24;17.50;99.90
16976;DHT22;8604;48.148;-1.786;2024-03-23T09:17:51;17.70;99.90
16976;DHT22;8604;48.148;-1.786;2024-03-23T09:20:18;18.10;99.90
16976;DHT22;8604;48.148;-1.786;2024-03-23T09:22:44;18.10;99.90
16976;DHT22;8604;48.148;-1.786;2024-03-23T09:25:12;18.20;99.90
16976;DHT22;8604;48.148;-1.786;2024-03-23T09:27:38;18.20;99.90
16976;DHT22;8604;48.148;-1.786;2024-03-23T09:30:06;18.30;99.90
16976;DHT22;8604;48.148;-1.786;2024-03-23T09:32:34;18.40;99.90
16976;DHT22;8604;48.148;-1.786;2024-03-23T09:35:02;18.60;99.90
16976;DHT22;8604;48.148;-1.786;2024-03-23T09:37:28;18.70;99.90
16976;DHT22;8604;48.148;-1.786;2024-03-23T09:39:56;18.50;99.90
16976;DHT22;8604;48.148;-1.786;2024-03-23T09:42:22;18.80;99.90
16976;DHT22;8604;48.148;-1.786;2024-03-23T09:44:51;18.80;99.90
16976;DHT22;8604;48.148;-1.786;2024-03-23T09:47:17;18.60;99.90
16976;DHT22;8604;48.148;-1.786;2024-03-23T09:49:46;18.40;99.90
16976;DHT22;8604;48.148;-1.786;2024-03-23T09:52:13;18.40;99.90
16976;DHT22;8604;48.148;-1.786;2024-03-23T09:54:40;18.50;99.90
16976;DHT22;8604;48.148;-1.786;2024-03-23T09:57:07;18.30;99.90
16976;DHT22;8604;48.148;-1.786;2024-03-23T09:59:34;18.20;99.90
16976;DHT22;8604;48.148;-1.786;2024-03-23T10:02:01;18.60;99.90
16976;DHT22;8604;48.148;-1.786;2024-03-23T10:04:38;19.20;99.90
16976;DHT22;8604;48.148;-1.786;2024-03-23T10:07:13;18.70;99.90
16976;DHT22;8604;48.148;-1.786;2024-03-23T10:09:40;18.40;99.90
16976;DHT22;8604;48.148;-1.786;2024-03-23T10:12:11;18.50;99.90
16976;DHT22;8604;48.148;-1.786;2024-03-23T10:14:40;18.90;99.90
16976;DHT22;8604;48.148;-1.786;2024-03-23T10:17:16;18.80;99.90
16976;DHT22;8604;48.148;-1.786;2024-03-23T10:19:44;18.90;99.90
16976;DHT22;8604;48.148;-1.786;2024-03-23T10:22:14;18.90;99.90
16976;DHT22;8604;48.148;-1.786;2024-03-23T10:24:42;19.20;99.90
16976;DHT22;8604;48.148;-1.786;2024-03-23T10:27:08;19.00;99.90
16976;DHT22;8604;48.148;-1.786;2024-03-23T10:29:36;19.10;99.90
16976;DHT22;8604;48.148;-1.786;2024-03-23T10:32:09;19.60;99.90
16976;DHT22;8604;48.148;-1.786;2024-03-23T10:34:37;19.80;99.90
16976;DHT22;8604;48.148;-1.786;2024-03-23T10:37:04;19.50;99.90
16976;DHT22;8604;48.148;-1.786;2024-03-23T10:39:35;19.90;99.90
16976;DHT22;8604;48.148;-1.786;2024-03-23T10:42:05;19.80;99.90
16976;DHT22;8604;48.148;-1.786;2024-03-23T10:44:34;20.00;99.90
16976;DHT22;8604;48.148;-1.786;2024-03-23T10:47:02;20.10;99.90
16976;DHT22;8604;48.148;-1.786;2024-03-23T10:49:32;19.90;99.90
16976;DHT22;8604;48.148;-1.786;2024-03-23T10:52:00;19.40;99.90
16976;DHT22;8604;48.148;-1.786;2024-03-23T10:54:27;18.50;99.90
16976;DHT22;8604;48.148;-1.786;2024-03-23T10:57:02;17.60;99.90
16976;DHT22;8604;48.148;-1.786;2024-03-23T10:59:31;16.90;99.90
16976;DHT22;8604;48.148;-1.786;2024-03-23T11:01:58;16.50;99.90
16976;DHT22;8604;48.148;-1.786;2024-03-23T11:04:30;16.50;99.90
16976;DHT22;8604;48.148;-1.786;2024-03-23T11:06:57;16.50;99.90
16976;DHT22;8604;48.148;-1.786;2024-03-23T11:09:43;16.30;99.90
16976;DHT22;8604;48.148;-1.786;2024-03-23T11:12:31;16.20;99.90
16976;DHT22;8604;48.148;-1.786;2024-03-23T11:15:04;16.10;99.90
16976;DHT22;8604;48.148;-1.786;2024-03-23T11:17:31;16.10;99.90
16976;DHT22;8604;48.148;-1.786;2024-03-23T11:19:59;16.40;99.90
16976;DHT22;8604;48.148;-1.786;2024-03-23T11:22:42;16.70;99.90
16976;DHT22;8604;48.148;-1.786;2024-03-23T11:25:15;16.90;99.90
16976;DHT22;8604;48.148;-1.786;2024-03-23T11:27:47;16.60;99.90
16976;DHT22;8604;48.148;-1.786;2024-03-23T11:34:44;15.70;99.90
16976;DHT22;8604;48.148;-1.786;2024-03-23T11:37:16;15.90;99.90
16976;DHT22;8604;48.148;-1.786;2024-03-23T11:39:43;16.50;99.90
16976;DHT22;8604;48.148;-1.786;2024-03-23T11:42:40;17.10;99.90
16976;DHT22;8604;48.148;-1.786;2024-03-23T11:45:57;16.70;99.90
16976;DHT22;8604;48.148;-1.786;2024-03-23T11:48:49;16.50;99.90
16976;DHT22;8604;48.148;-1.786;2024-03-23T11:51:17;16.50;99.90
16976;DHT22;8604;48.148;-1.786;2024-03-23T11:53:45;16.30;99.90
16976;DHT22;8604;48.148;-1.786;2024-03-23T11:56:12;15.90;99.90
16976;DHT22;8604;48.148;-1.786;2024-03-23T11:58:42;15.70;99.90
16976;DHT22;8604;48.148;-1.786;2024-03-23T12:01:17;15.70;99.90
16976;DHT22;8604;48.148;-1.786;2024-03-23T12:04:11;15.60;99.90
16976;DHT22;8604;48.148;-1.786;2024-03-23T12:07:25;15.50;99.90
16976;DHT22;8604;48.148;-1.786;2024-03-23T12:10:21;15.40;99.90
16976;DHT22;8604;48.148;-1.786;2024-03-23T12:13:29;15.30;99.90
16976;DHT22;8604;48.148;-1.786;2024-03-23T12:16:11;15.30;99.90
16976;DHT22;8604;48.148;-1.786;2024-03-23T12:18:42;15.50;99.90
16976;DHT22;8604;48.148;-1.786;2024-03-23T12:21:11;15.50;99.90
16976;DHT22;8604;48.148;-1.786;2024-03-23T12:23:39;15.30;99.90
16976;DHT22;8604;48.148;-1.786;2024-03-23T12:26:08;15.00;99.90
16976;DHT22;8604;48.148;-1.786;2024-03-23T12:28:38;14.80;99.90
16976;DHT22;8604;48.148;-1.786;2024-03-23T12:31:07;14.40;99.90
16976;DHT22;8604;48.148;-1.786;2024-03-23T12:33:34;14.00;99.90
16976;DHT22;8604;48.148;-1.786;2024-03-23T12:36:05;13.70;99.90
16976;DHT22;8604;48.148;-1.786;2024-03-23T12:38:35;13.40;99.90
16976;DHT22;8604;48.148;-1.786;2024-03-23T12:41:03;13.50;99.90
16976;DHT22;8604;48.148;-1.786;2024-03-23T12:43:32;13.70;99.90
16976;DHT22;8604;48.148;-1.786;2024-03-23T12:46:00;13.90;99.90
16976;DHT22;8604;48.148;-1.786;2024-03-23T12:48:27;13.80;99.90
16976;DHT22;8604;48.148;-1.786;2024-03-23T12:50:55;13.70;99.90
16976;DHT22;8604;48.148;-1.786;2024-03-23T12:53:23;13.70;99.90
16976;DHT22;8604;48.148;-1.786;2024-03-23T12:55:52;13.90;99.90
16976;DHT22;8604;48.148;-1.786;2024-03-23T12:58:18;14.00;99.90
16976;DHT22;8604;48.148;-1.786;2024-03-23T13:00:46;14.30;99.90
16976;DHT22;8604;48.148;-1.786;2024-03-23T13:03:14;14.40;99.90
16976;DHT22;8604;48.148;-1.786;2024-03-23T13:05:42;14.40;99.90
16976;DHT22;8604;48.148;-1.786;2024-03-23T13:08:09;14.40;99.90
16976;DHT22;8604;48.148;-1.786;2024-03-23T13:10:38;14.40;99.90
16976;DHT22;8604;48.148;-1.786;2024-03-23T13:13:05;14.40;99.90
16976;DHT22;8604;48.148;-1.786;2024-03-23T13:15:34;14.20;99.90
16976;DHT22;8604;48.148;-1.786;2024-03-23T13:18:02;14.00;99.90
16976;DHT22;8604;48.148;-1.786;2024-03-23T13:20:30;13.90;99.90
16976;DHT22;8604;48.148;-1.786;2024-03-23T13:22:57;13.80;99.90
16976;DHT22;8604;48.148;-1.786;2024-03-23T13:25:25;13.70;99.90
16976;DHT22;8604;48.148;-1.786;2024-03-23T13:27:54;13.50;99.90
16976;DHT22;8604;48.148;-1.786;2024-03-23T13:30:22;13.40;99.90
16976;DHT22;8604;48.148;-1.786;2024-03-23T13:32:49;13.20;99.90
16976;DHT22;8604;48.148;-1.786;2024-03-23T13:35:18;12.80;99.90
16976;DHT22;8604;48.148;-1.786;2024-03-23T13:37:45;12.50;99.90
16976;DHT22;8604;48.148;-1.786;2024-03-23T13:40:13;12.30;99.90
16976;DHT22;8604;48.148;-1.786;2024-03-23T13:42:40;12.30;99.90
16976;DHT22;8604;48.148;-1.786;2024-03-23T13:45:10;12.30;99.90
16976;DHT22;8604;48.148;-1.786;2024-03-23T13:47:44;12.40;99.90
16976;DHT22;8604;48.148;-1.786;2024-03-23T13:50:13;12.40;99.90
16976;DHT22;8604;48.148;-1.786;2024-03-23T13:52:40;12.40;99.90
16976;DHT22;8604;48.148;-1.786;2024-03-23T13:55:08;12.40;99.90
16976;DHT22;8604;48.148;-1.786;2024-03-23T13:57:35;12.20;99.90
16976;DHT22;8604;48.148;-1.786;2024-03-23T14:00:07;12.40;99.90
16976;DHT22;8604;48.148;-1.786;2024-03-23T14:02:40;12.40;99.90
16976;DHT22;8604;48.148;-1.786;2024-03-23T14:05:08;12.50;99.90
16976;DHT22;8604;48.148;-1.786;2024-03-23T14:07:35;12.60;99.90
16976;DHT22;8604;48.148;-1.786;2024-03-23T14:10:04;12.60;99.90
16976;DHT22;8604;48.148;-1.786;2024-03-23T14:12:32;12.60;99.90
16976;DHT22;8604;48.148;-1.786;2024-03-23T14:15:00;12.70;99.90
16976;DHT22;8604;48.148;-1.786;2024-03-23T14:17:29;12.60;99.90
16976;DHT22;8604;48.148;-1.786;2024-03-23T14:19:58;12.60;99.90
16976;DHT22;8604;48.148;-1.786;2024-03-23T14:22:28;12.80;99.90
16976;DHT22;8604;48.148;-1.786;2024-03-23T14:24:56;12.90;99.90
16976;DHT22;8604;48.148;-1.786;2024-03-23T14:27:23;12.90;99.90
16976;DHT22;8604;48.148;-1.786;2024-03-23T14:29:51;12.70;99.90
16976;DHT22;8604;48.148;-1.786;2024-03-23T14:32:18;12.30;99.90
16976;DHT22;8604;48.148;-1.786;2024-03-23T14:34:46;12.00;99.90
16976;DHT22;8604;48.148;-1.786;2024-03-23T14:37:14;12.00;99.90
16976;DHT22;8604;48.148;-1.786;2024-03-23T14:39:42;11.90;99.90
16976;DHT22;8604;48.148;-1.786;2024-03-23T14:42:10;11.90;99.90
16976;DHT22;8604;48.148;-1.786;2024-03-23T14:44:39;11.90;99.90
16976;DHT22;8604;48.148;-1.786;2024-03-23T14:47:06;11.90;99.90
16976;DHT22;8604;48.148;-1.786;2024-03-23T14:49:40;11.90;99.90
16976;DHT22;8604;48.148;-1.786;2024-03-23T14:52:07;11.90;99.90
16976;DHT22;8604;48.148;-1.786;2024-03-23T14:54:37;11.80;99.90
16976;DHT22;8604;48.148;-1.786;2024-03-23T14:57:04;11.80;99.90
16976;DHT22;8604;48.148;-1.786;2024-03-23T14:59:33;11.80;99.90
16976;DHT22;8604;48.148;-1.786;2024-03-23T15:01:59;11.90;99.90
16976;DHT22;8604;48.148;-1.786;2024-03-23T15:04:28;12.00;99.90
16976;DHT22;8604;48.148;-1.786;2024-03-23T15:06:54;11.90;99.90
16976;DHT22;8604;48.148;-1.786;2024-03-23T15:09:23;12.00;99.90
16976;DHT22;8604;48.148;-1.786;2024-03-23T15:11:52;12.10;99.90
16976;DHT22;8604;48.148;-1.786;2024-03-23T15:14:21;12.10;99.90
16976;DHT22;8604;48.148;-1.786;2024-03-23T15:16:48;12.30;99.90
16976;DHT22;8604;48.148;-1.786;2024-03-23T15:19:17;12.30;99.90
16976;DHT22;8604;48.148;-1.786;2024-03-23T15:21:44;12.40;99.90
16976;DHT22;8604;48.148;-1.786;2024-03-23T15:24:12;12.40;99.90
16976;DHT22;8604;48.148;-1.786;2024-03-23T15:26:39;12.30;99.90
16976;DHT22;8604;48.148;-1.786;2024-03-23T15:29:10;12.20;99.90
16976;DHT22;8604;48.148;-1.786;2024-03-23T15:31:39;12.20;99.90
16976;DHT22;8604;48.148;-1.786;2024-03-23T15:34:07;12.10;99.90
16976;DHT22;8604;48.148;-1.786;2024-03-23T15:36:36;11.90;99.90
16976;DHT22;8604;48.148;-1.786;2024-03-23T15:39:05;11.80;99.90
16976;DHT22;8604;48.148;-1.786;2024-03-23T15:41:33;11.60;99.90
16976;DHT22;8604;48.148;-1.786;2024-03-23T15:44:03;11.50;99.90
16976;DHT22;8604;48.148;-1.786;2024-03-23T15:46:34;11.50;99.90
16976;DHT22;8604;48.148;-1.786;2024-03-23T15:49:03;11.50;99.90
16976;DHT22;8604;48.148;-1.786;2024-03-23T15:51:31;11.40;99.90
16976;DHT22;8604;48.148;-1.786;2024-03-23T15:54:01;11.30;99.90
16976;DHT22;8604;48.148;-1.786;2024-03-23T15:56:29;11.30;99.90
16976;DHT22;8604;48.148;-1.786;2024-03-23T15:59:00;11.30;99.90
16976;DHT22;8604;48.148;-1.786;2024-03-23T16:01:33;11.30;99.90
16976;DHT22;8604;48.148;-1.786;2024-03-23T16:04:02;11.40;99.90
16976;DHT22;8604;48.148;-1.786;2024-03-23T16:06:30;11.40;99.90
16976;DHT22;8604;48.148;-1.786;2024-03-23T16:08:59;11.30;99.90
16976;DHT22;8604;48.148;-1.786;2024-03-23T16:11:25;11.20;99.90
16976;DHT22;8604;48.148;-1.786;2024-03-23T16:13:53;11.20;99.90
16976;DHT22;8604;48.148;-1.786;2024-03-23T16:16:21;11.10;99.90
16976;DHT22;8604;48.148;-1.786;2024-03-23T16:18:51;11.10;99.90
16976;DHT22;8604;48.148;-1.786;2024-03-23T16:21:18;11.10;99.90
16976;DHT22;8604;48.148;-1.786;2024-03-23T16:23:46;11.20;99.90
16976;DHT22;8604;48.148;-1.786;2024-03-23T16:26:13;11.10;99.90
16976;DHT22;8604;48.148;-1.786;2024-03-23T16:29:10;11.10;99.90
16976;DHT22;8604;48.148;-1.786;2024-03-23T16:31:38;11.10;99.90
16976;DHT22;8604;48.148;-1.786;2024-03-23T16:34:07;11.10;99.90
16976;DHT22;8604;48.148;-1.786;2024-03-23T16:36:35;11.10;99.90
16976;DHT22;8604;48.148;-1.786;2024-03-23T16:39:02;11.10;99.90
16976;DHT22;8604;48.148;-1.786;2024-03-23T16:41:30;11.00;99.90
16976;DHT22;8604;48.148;-1.786;2024-03-23T16:43:57;11.00;99.90
16976;DHT22;8604;48.148;-1.786;2024-03-23T16:46:26;11.10;99.90
16976;DHT22;8604;48.148;-1.786;2024-03-23T16:48:53;11.00;99.90